Flight Track Log - Related Links

Times and Time Zones

All times are in EDT time to prevent confusion due to time zone crossing. See the SKW4664 flight status page for this flight to view local times or setup timezone preferences in your user account.


Time Position Orientation Groundspeed Altitude Reporting Facility
EDT Latitude Longitude Course Direction KTS MPH feet Rate Location/Type
Mon 10:33:33 AM 44.8944 -93.2544 215° Southwest 169 194 2,000  Level FAA TRACON SMA TRACON (SMA)
Mon 10:33:53 AM 44.8931 -93.2753 265° West 174 200 2,400 1,650 Climbing FAA TRACON SMA TRACON (SMA)
Mon 10:34:13 AM 44.8894 -93.3056 260° West 197 227 3,100 1,902 Climbing FAA TRACON SMA TRACON (SMA)
Mon 10:34:34 AM 44.8858 -93.3314 259° West 217 250 3,700 1,650 Climbing FAA TRACON SMA TRACON (SMA)
Mon 10:34:53 AM 44.8828 -93.3608 262° West 238 274 4,200 2,250 Climbing FAA TRACON SMA TRACON (SMA)
Mon 10:35:14 AM 44.8786 -93.3997 261° West 260 299 5,200 3,000 Climbing FAA TRACON SMA TRACON (SMA)
Mon 10:35:33 AM 44.8694 -93.4292 246° West 269 310 6,200 3,231 Climbing FAA TRACON SMA TRACON (SMA)
Mon 10:35:53 AM 44.8556 -93.4539 232° Southwest 266 306 7,300 3,220 Climbing FAA TRACON SMA TRACON (SMA)
Mon 10:36:00 AM 44.7067 -93.5880 232° Southwest  Level FlightAware Approximate
Mon 10:36:14 AM 44.8361 -93.4822 226° Southwest 261 300 8,400  Level FAA TRACON SMA TRACON (SMA)
Mon 10:36:34 AM 44.8197 -93.5053 225° Southwest 266 306 9,300 2,923 Climbing FAA TRACON SMA TRACON (SMA)
Mon 10:36:53 AM 44.8039 -93.5275 225° Southwest 265 305 10,300 2,000 Climbing FAA TRACON SMA TRACON (SMA)
Mon 10:37:00 AM 44.6433 -93.7135 235° Southwest  Level FlightAware Approximate
Mon 10:37:13 AM 44.7831 -93.5578 226° Southwest 278 320 10,600  Level FAA TRACON SMA TRACON (SMA)
Mon 10:37:33 AM 44.7653 -93.5842 227° Southwest 295 339 11,000 1,650 Climbing FAA TRACON SMA TRACON (SMA)
Mon 10:37:53 AM 44.7467 -93.6111 226° Southwest 310 357 11,700 2,250 Climbing FAA TRACON SMA TRACON (SMA)
Mon 10:38:00 AM 44.5791 -93.8376 215° Southwest  Level FlightAware Approximate
Mon 10:38:13 AM 44.7264 -93.6481 232° Southwest 317 365 12,500  Level FAA TRACON SMA TRACON (SMA)
Mon 10:38:33 AM 44.7131 -93.6819 241° Southwest 318 366 13,200 1,950 Climbing FAA TRACON SMA TRACON (SMA)
Mon 10:38:53 AM 44.7014 -93.7164 245° Southwest 321 369 13,800 2,250 Climbing FAA TRACON SMA TRACON (SMA)
Mon 10:39:13 AM 44.6872 -93.7606 246° West 321 369 14,700 2,250 Climbing FAA TRACON SMA TRACON (SMA)
Mon 10:39:33 AM 44.6756 -93.7950 245° Southwest 319 367 15,300 1,800 Climbing FAA TRACON SMA TRACON (SMA)
Mon 10:39:53 AM 44.6625 -93.8294 242° Southwest 322 371 15,900 2,100 Climbing FAA TRACON SMA TRACON (SMA)
Mon 10:40:13 AM 44.6469 -93.8725 243° Southwest 323 372 16,700 2,250 Climbing FAA TRACON SMA TRACON (SMA)
Mon 10:40:33 AM 44.6347 -93.9072 244° Southwest 322 371 17,400 1,650 Climbing FAA TRACON SMA TRACON (SMA)
Mon 10:40:53 AM 44.6225 -93.9422 244° Southwest 324 373 17,800 1,650 Climbing FAA TRACON SMA TRACON (SMA)
Mon 10:41:13 AM 44.6069 -93.9858 243° Southwest 324 373 18,500 1,650 Climbing FAA TRACON SMA TRACON (SMA)
Mon 10:41:33 AM 44.5958 -94.0217 246° West 327 376 18,900 1,500 Climbing FAA TRACON SMA TRACON (SMA)
Mon 10:41:53 AM 44.5836 -94.0575 244° Southwest 329 379 19,500 1,800 Climbing FAA TRACON SMA TRACON (SMA)
Mon 10:42:13 AM 44.5672 -94.1017 242° Southwest 332 382 20,100 1,500 Climbing FAA TRACON SMA TRACON (SMA)
Mon 10:42:33 AM 44.5550 -94.1378 245° Southwest 332 382 20,500 1,350 Climbing FAA TRACON SMA TRACON (SMA)
Mon 10:42:53 AM 44.5436 -94.1750 247° West 336 387 21,000 1,950 Climbing FAA TRACON SMA TRACON (SMA)
Mon 10:43:13 AM 44.5272 -94.2200 243° Southwest 335 386 21,800 2,100 Climbing FAA TRACON SMA TRACON (SMA)
Mon 10:43:33 AM 44.5144 -94.2547 243° Southwest 331 381 22,400 1,650 Climbing FAA TRACON SMA TRACON (SMA)
Mon 10:43:53 AM 44.5028 -94.2911 246° West 331 381 22,900 1,500 Climbing FAA TRACON SMA TRACON (SMA)
Mon 10:44:13 AM 44.4864 -94.3347 242° Southwest 328 377 23,400 1,350 Climbing FAA TRACON SMA TRACON (SMA)
Mon 10:44:33 AM 44.4747 -94.3708 246° West 330 380 23,800 1,050 Climbing FAA TRACON SMA TRACON (SMA)
Mon 10:44:53 AM 44.4619 -94.4064 243° Southwest 331 381 24,100 900 Climbing FAA TRACON SMA TRACON (SMA)
Mon 10:45:33 AM 44.4367 -94.4794 244° Southwest 340 391 24,700 991 Climbing FAA TRACON SMA TRACON (SMA)
Mon 10:46:48 AM 44.3775 -94.6289 241° Southwest 345 397 26,000 574 Climbing Minneapolis Center
Mon 10:47:49 AM 44.3336 -94.7497 243° Southwest 349 402 26,000  Level Minneapolis Center
Mon 10:48:51 AM 44.2903 -94.8678 243° Southwest 346 398 26,000  Level Minneapolis Center
Mon 10:50:05 AM 44.2419 -94.9992 243° Southwest 325 374 26,000  Level Minneapolis Center
Mon 10:51:07 AM 44.2044 -95.1036 243° Southwest 310 357 26,000  Level Minneapolis Center
Mon 10:52:08 AM 44.1675 -95.2031 243° Southwest 298 343 26,000  Level Minneapolis Center
Mon 10:53:10 AM 44.1244 -95.3194 243° Southwest 286 329 26,000  Level Minneapolis Center
Mon 10:54:12 AM 44.0883 -95.4158 242° Southwest 282 325 26,000  Level Minneapolis Center
Mon 10:55:13 AM 44.0517 -95.5136 242° Southwest 284 327 26,000 -933 Level Minneapolis Center
Mon 10:56:27 AM 44.0136 -95.6156 243° Southwest 295 339 23,900 -2,338 Descending Minneapolis Center
Mon 10:57:29 AM 43.9647 -95.7442 242° Southwest 312 359 20,700 -2,855 Descending Minneapolis Center
Mon 10:58:31 AM 43.9247 -95.8539 243° Southwest 316 364 18,000 -2,634 Descending Minneapolis Center
Mon 10:59:32 AM 43.8831 -95.9628 242° Southwest 317 365 15,300 -2,634 Descending Minneapolis Center
Mon 11:00:34 AM 43.8428 -96.0694 242° Southwest 313 360 12,600 -2,226 Descending Minneapolis Center
Mon 11:01:36 AM 43.7933 -96.1558 232° Southwest 298 343 10,700 -1,512 Descending Minneapolis Center
Mon 11:02:37 AM 43.7358 -96.2200 219° Southwest 277 319 9,500 -1,317 Descending Minneapolis Center
Mon 11:03:39 AM 43.6692 -96.2967 220° Southwest 265 305 8,000 -1,403 Descending Minneapolis Center
Mon 11:04:41 AM 43.6133 -96.3597 219° Southwest 261 300 6,600 -976 Descending Minneapolis Center
Mon 11:05:42 AM 43.5558 -96.4231 219° Southwest 263 303 6,000 -293 Descending Minneapolis Center
Mon 11:06:44 AM 43.5058 -96.4789 219° Southwest 251 289 6,000 -97 Level Minneapolis Center
Mon 11:07:46 AM 43.4703 -96.5406 232° Southwest 230 265 5,800 -585 Descending Minneapolis Center
Mon 11:08:47 AM 43.4478 -96.6239 250° West 230 265 4,800 -1,073 Descending Minneapolis Center
Mon 11:09:49 AM 43.4147 -96.7250 246° West 235 270 3,600 -683 Descending Minneapolis Center
Mon 11:10:50 AM 43.3819 -96.8108 242° Southwest 245 282 3,400 -98 Descending Minneapolis Center
Mon 11:11:52 AM 43.3942 -96.8811 283° West 222 255 3,400  Level Minneapolis Center
Mon 11:12:54 AM 43.4369 -96.8886 353° North 188 216 3,400  Level Minneapolis Center
Mon 11:13:55 AM 43.4714 -96.8514 38° Northeast 166 191 3,400 -98 Level Minneapolis Center
Mon 11:14:57 AM 43.5039 -96.8194 35° Northeast 156 180 3,200 -194 Descending Minneapolis Center

Login

Don't have an account? Register now (free) for customized features, flight alerts, and more!